Time;durP1;ratioP1;P1;durP2;ratioP2;P2;SDS_P1;SDS_P2;PMS_P1;PMS_P2;Temp;Humidity;BMP_temperature;BMP_pressure;BME280_temperature;BME280_humidity;BME280_pressure;Samples;Min_cycle;Max_cycle;Signal;HPM_P1;HPM_P2
2023/06/24 00:01:31;;;;;;;9.95;7.00;;;16.20;99.90;;;;;;4954961;28;20219;-64
2023/06/24 00:03:58;;;;;;;8.93;7.32;;;16.10;99.90;;;;;;4934692;28;20408;-65
2023/06/24 00:06:25;;;;;;;8.18;5.93;;;16.20;99.90;;;;;;4982207;28;20624;-66
2023/06/24 00:09:00;;;;;;;10.02;6.78;;;16.10;99.90;;;;;;4966652;28;20222;-65
2023/06/24 00:11:27;;;;;;;11.02;7.53;;;16.00;99.90;;;;;;4966455;28;20304;-65
2023/06/24 00:13:54;;;;;;;10.82;7.10;;;16.10;99.90;;;;;;4982144;28;20203;-65
2023/06/24 00:16:26;;;;;;;10.50;6.85;;;16.10;99.90;;;;;;4957971;28;20202;-65
2023/06/24 00:18:53;;;;;;;11.02;7.70;;;16.00;99.90;;;;;;4951294;28;20225;-65
2023/06/24 00:21:20;;;;;;;10.48;7.28;;;16.10;99.90;;;;;;4978444;28;20227;-65
2023/06/24 00:23:49;;;;;;;9.18;7.07;;;16.00;99.90;;;;;;4985762;28;20238;-65
2023/06/24 00:26:17;;;;;;;8.60;6.88;;;16.00;99.90;;;;;;4951339;28;20221;-65
2023/06/24 00:28:44;;;;;;;10.38;6.68;;;16.00;99.90;;;;;;4981642;28;20217;-65
2023/06/24 00:31:11;;;;;;;16.15;7.03;;;16.00;99.90;;;;;;4974264;28;20207;-65
2023/06/24 00:33:38;;;;;;;11.18;7.13;;;;;;;;;;4967707;28;20214;-64
2023/06/24 00:36:06;;;;;;;10.57;7.22;;;16.10;99.90;;;;;;4955173;28;20223;-65
2023/06/24 00:38:33;;;;;;;12.45;7.25;;;16.10;99.90;;;;;;4983256;28;20282;-65
2023/06/24 00:41:00;;;;;;;9.30;7.05;;;16.10;99.90;;;;;;4966163;28;20692;-65
2023/06/24 00:43:29;;;;;;;8.77;7.10;;;16.10;99.90;;;;;;4967465;28;21849;-65
2023/06/24 00:45:56;;;;;;;12.73;7.97;;;16.00;99.90;;;;;;4979734;28;20195;-65
2023/06/24 00:48:23;;;;;;;9.18;6.85;;;16.00;99.90;;;;;;4952941;28;20207;-65
2023/06/24 00:50:50;;;;;;;11.85;7.35;;;16.00;99.90;;;;;;4950358;28;20212;-65
2023/06/24 00:53:17;;;;;;;8.93;7.45;;;16.00;99.90;;;;;;4966974;28;20734;-65
2023/06/24 00:55:45;;;;;;;13.05;7.20;;;16.00;99.90;;;;;;4974425;28;20202;-65
2023/06/24 00:58:15;;;;;;;10.48;7.25;;;15.90;99.90;;;;;;4960061;28;20207;-65
2023/06/24 01:00:45;;;;;;;9.48;7.13;;;16.00;99.90;;;;;;4980738;28;20981;-65
2023/06/24 01:03:14;;;;;;;11.27;7.22;;;15.90;99.90;;;;;;4953815;28;21039;-64
2023/06/24 01:05:41;;;;;;;19.67;7.63;;;15.70;99.90;;;;;;4952934;28;20376;-65
2023/06/24 01:08:13;;;;;;;11.18;7.60;;;15.90;99.90;;;;;;4978706;28;20192;-65
2023/06/24 01:10:40;;;;;;;11.63;7.70;;;15.80;99.90;;;;;;4977868;28;20214;-65
2023/06/24 01:13:07;;;;;;;10.75;7.90;;;15.80;99.90;;;;;;4956507;28;20230;-65
2023/06/24 01:15:34;;;;;;;12.88;8.02;;;15.80;99.90;;;;;;4980701;28;20734;-65
2023/06/24 01:18:09;;;;;;;14.43;8.68;;;15.70;99.90;;;;;;4949708;28;20216;-65
2023/06/24 01:20:46;;;;;;;12.30;8.30;;;15.80;99.90;;;;;;4957549;28;20231;-65
2023/06/24 01:23:41;;;;;;;16.88;8.43;;;15.80;99.90;;;;;;4981478;28;20225;-65
2023/06/24 01:26:34;;;;;;;10.93;7.43;;;15.70;99.90;;;;;;4971658;28;21085;-65
2023/06/24 01:29:22;;;;;;;13.48;7.70;;;15.60;99.90;;;;;;4950032;28;20211;-65
2023/06/24 01:31:53;;;;;;;11.27;7.93;;;15.60;99.90;;;;;;4982201;28;20235;-64
2023/06/24 01:34:26;;;;;;;9.20;7.85;;;15.50;99.90;;;;;;4954300;28;20221;-65
2023/06/24 01:37:03;;;;;;;11.52;8.10;;;15.50;99.90;;;;;;4954719;28;20219;-65
2023/06/24 01:39:35;;;;;;;12.48;9.30;;;15.50;99.90;;;;;;4984355;28;20198;-65
2023/06/24 01:42:08;;;;;;;19.63;9.55;;;15.50;99.90;;;;;;4980368;28;20691;-65
2023/06/24 01:44:37;;;;;;;14.32;8.63;;;15.50;99.90;;;;;;4960409;28;20203;-64
2023/06/24 01:47:08;;;;;;;12.98;9.50;;;15.60;99.90;;;;;;4984988;28;20195;-64
2023/06/24 01:49:40;;;;;;;13.95;8.65;;;15.60;99.90;;;;;;4971001;28;20207;-64
2023/06/24 01:52:09;;;;;;;10.32;9.10;;;15.60;99.90;;;;;;4946438;28;20931;-64
2023/06/24 01:54:37;;;;;;;15.82;9.18;;;15.60;99.90;;;;;;4981497;28;20203;-65
2023/06/24 01:57:06;;;;;;;12.52;8.20;;;15.60;99.90;;;;;;4969345;28;20323;-64
2023/06/24 01:59:35;;;;;;;11.93;9.02;;;15.60;99.90;;;;;;4973940;28;20493;-64
2023/06/24 02:02:03;;;;;;;12.55;9.52;;;15.50;99.90;;;;;;4966157;28;20215;-65
2023/06/24 02:04:32;;;;;;;15.13;8.88;;;15.60;99.90;;;;;;4955394;28;20207;-65
2023/06/24 02:07:01;;;;;;;10.98;8.57;;;15.60;99.90;;;;;;4966653;28;20206;-65
2023/06/24 02:09:30;;;;;;;11.88;9.27;;;15.60;99.90;;;;;;4959555;28;22112;-64
2023/06/24 02:11:59;;;;;;;12.05;8.63;;;15.60;99.90;;;;;;4984900;28;20226;-64
2023/06/24 02:14:28;;;;;;;12.45;9.35;;;15.60;99.90;;;;;;4975576;28;20207;-65
2023/06/24 02:16:57;;;;;;;12.88;8.63;;;15.80;99.90;;;;;;4965274;28;20206;-64
2023/06/24 02:19:26;;;;;;;11.82;8.57;;;15.80;99.90;;;;;;4972923;28;20693;-65
2023/06/24 02:21:57;;;;;;;14.23;9.25;;;15.80;99.90;;;;;;4974278;28;20293;-65
2023/06/24 02:24:25;;;;;;;15.18;9.38;;;15.80;99.90;;;;;;4958421;28;20242;-65
2023/06/24 02:26:52;;;;;;;12.90;8.80;;;15.70;99.90;;;;;;4986869;28;20199;-65
2023/06/24 02:29:20;;;;;;;11.32;8.57;;;15.70;99.90;;;;;;4976636;28;20203;-65
2023/06/24 02:31:47;;;;;;;15.50;9.02;;;15.70;99.90;;;;;;4966920;28;20207;-65
2023/06/24 02:34:13;;;;;;;14.05;9.13;;;15.70;99.90;;;;;;4984933;28;20195;-65
2023/06/24 02:36:40;;;;;;;13.80;8.93;;;15.70;99.90;;;;;;4968889;28;20230;-64
2023/06/24 02:39:08;;;;;;;10.23;8.23;;;15.70;99.90;;;;;;4984206;28;20209;-64
2023/06/24 02:41:36;;;;;;;9.75;8.20;;;15.90;99.90;;;;;;4953295;28;20218;-65
2023/06/24 02:44:02;;;;;;;10.02;8.05;;;15.70;99.90;;;;;;4981575;28;20207;-66
2023/06/24 02:46:33;;;;;;;11.68;7.32;;;15.90;99.90;;;;;;4964184;28;20729;-65
2023/06/24 02:49:00;;;;;;;13.43;7.97;;;15.60;99.90;;;;;;4980010;28;20210;-65
2023/06/24 02:51:27;;;;;;;7.07;6.07;;;15.60;99.90;;;;;;4968599;28;20207;-65
2023/06/24 02:53:54;;;;;;;9.23;7.03;;;15.30;99.90;;;;;;4977826;28;21733;-64
2023/06/24 02:56:25;;;;;;;8.85;6.68;;;15.20;99.90;;;;;;4949355;28;20710;-65
2023/06/24 02:58:53;;;;;;;8.65;6.50;;;15.10;99.90;;;;;;4980291;28;20226;-65
2023/06/24 03:01:24;;;;;;;8.10;6.95;;;15.00;99.90;;;;;;4969745;28;20678;-64
2023/06/24 03:03:52;;;;;;;7.70;6.57;;;15.00;99.90;;;;;;4980805;28;20234;-65
2023/06/24 03:06:20;;;;;;;6.65;5.78;;;13.40;99.90;;;;;;4968501;28;20888;-64
2023/06/24 03:08:47;;;;;;;9.10;7.35;;;15.10;99.90;;;;;;4984530;28;20207;-65
2023/06/24 03:11:14;;;;;;;12.85;6.88;;;15.10;99.90;;;;;;4950669;28;20222;-65
2023/06/24 03:13:42;;;;;;;8.00;6.47;;;15.20;99.90;;;;;;4984685;28;20254;-65
2023/06/24 03:16:12;;;;;;;6.90;6.20;;;15.20;99.90;;;;;;4962186;28;26407;-64
2023/06/24 03:18:39;;;;;;;8.75;6.95;;;15.20;99.90;;;;;;4982612;28;20284;-65
2023/06/24 03:21:07;;;;;;;10.13;6.55;;;15.40;99.90;;;;;;4974608;28;20207;-65
2023/06/24 03:23:33;;;;;;;13.82;5.78;;;15.20;99.90;;;;;;4965177;28;20680;-64
2023/06/24 03:26:00;;;;;;;9.40;6.15;;;15.20;99.90;;;;;;4951868;28;20689;-64
2023/06/24 03:28:27;;;;;;;7.32;5.55;;;15.20;99.90;;;;;;4981160;28;20716;-64
2023/06/24 03:30:55;;;;;;;9.00;6.03;;;15.20;99.90;;;;;;4979684;28;20195;-65
2023/06/24 03:33:24;;;;;;;9.45;6.25;;;15.10;99.90;;;;;;4963920;28;20298;-65
2023/06/24 03:35:51;;;;;;;10.07;7.10;;;15.00;99.90;;;;;;4978998;28;20205;-64
2023/06/24 03:38:17;;;;;;;10.52;7.45;;;15.00;99.90;;;;;;4965222;28;20199;-65
2023/06/24 03:40:44;;;;;;;12.63;7.10;;;15.00;99.90;;;;;;4981450;28;20202;-65
2023/06/24 03:43:11;;;;;;;14.30;7.07;;;15.10;99.90;;;;;;4949982;28;20724;-65
2023/06/24 03:45:38;;;;;;;8.15;6.78;;;15.00;99.90;;;;;;4979485;28;20251;-65
2023/06/24 03:48:06;;;;;;;12.07;7.47;;;15.00;99.90;;;;;;4960011;28;20803;-65
2023/06/24 03:50:33;;;;;;;10.00;7.72;;;15.10;99.90;;;;;;4976073;28;20205;-65
2023/06/24 03:53:00;;;;;;;11.43;7.72;;;15.20;99.90;;;;;;4967556;28;20227;-64
2023/06/24 03:55:27;;;;;;;8.60;6.78;;;15.30;99.90;;;;;;4979611;28;20199;-64
2023/06/24 03:57:53;;;;;;;16.95;7.25;;;15.20;99.90;;;;;;4949821;28;20216;-65
2023/06/24 04:00:20;;;;;;;12.15;8.02;;;15.20;99.90;;;;;;4975950;28;20206;-65
2023/06/24 04:02:47;;;;;;;8.70;7.05;;;15.20;99.90;;;;;;4981737;28;20789;-64
2023/06/24 04:05:16;;;;;;;10.35;7.05;;;15.10;99.90;;;;;;4959915;28;20209;-65
2023/06/24 04:07:46;;;;;;;10.18;6.50;;;15.10;99.90;;;;;;4966990;28;20210;-65
2023/06/24 04:10:13;;;;;;;9.52;7.88;;;15.20;99.90;;;;;;4980241;28;20747;-65
2023/06/24 04:12:40;;;;;;;12.57;6.80;;;15.20;99.90;;;;;;4954869;28;20218;-64
2023/06/24 04:15:08;;;;;;;14.45;7.75;;;15.30;99.90;;;;;;4982318;28;20782;-64
2023/06/24 04:17:35;;;;;;;12.23;7.38;;;15.30;99.90;;;;;;4984312;28;20205;-65
2023/06/24 04:20:04;;;;;;;11.07;8.13;;;15.30;99.90;;;;;;4966471;28;20211;-65
2023/06/24 04:22:32;;;;;;;9.73;7.88;;;15.20;99.90;;;;;;4969748;28;21604;-64
2023/06/24 04:24:58;;;;;;;9.23;7.05;;;15.20;99.90;;;;;;4985333;28;20237;-64
2023/06/24 04:27:25;;;;;;;16.50;8.23;;;15.30;99.90;;;;;;4976268;28;20207;-65
2023/06/24 04:29:52;;;;;;;12.88;6.97;;;15.30;99.90;;;;;;4938807;28;20199;-65
2023/06/24 04:32:19;;;;;;;10.98;7.78;;;15.40;99.90;;;;;;4975071;28;20202;-65
2023/06/24 04:34:46;;;;;;;17.15;7.78;;;15.30;99.90;;;;;;4964907;28;20207;-67
2023/06/24 04:37:12;;;;;;;12.70;8.05;;;15.40;99.90;;;;;;4969266;28;20214;-65
2023/06/24 04:39:41;;;;;;;10.88;7.53;;;15.40;99.90;;;;;;4967501;28;20202;-66
2023/06/24 04:42:08;;;;;;;10.82;8.43;;;15.30;99.90;;;;;;4980557;28;20203;-65
2023/06/24 04:44:34;;;;;;;16.80;8.80;;;15.30;99.90;;;;;;4951634;28;22141;-65
2023/06/24 04:47:01;;;;;;;18.30;8.90;;;15.40;99.90;;;;;;4983230;28;20222;-65
2023/06/24 04:49:28;;;;;;;11.30;8.30;;;15.40;99.90;;;;;;4955229;28;20205;-64
2023/06/24 04:51:55;;;;;;;19.50;9.00;;;15.40;99.90;;;;;;4970849;28;20206;-65
2023/06/24 04:54:22;;;;;;;13.95;8.73;;;15.40;99.90;;;;;;4962941;28;20238;-68
2023/06/24 04:56:51;;;;;;;16.17;9.00;;;15.50;99.90;;;;;;4982088;28;20585;-65
2023/06/24 04:59:18;;;;;;;14.98;9.55;;;15.60;99.90;;;;;;4976541;28;20993;-65
2023/06/24 05:01:45;;;;;;;16.20;9.05;;;15.70;99.90;;;;;;4953599;28;20218;-66
2023/06/24 05:04:11;;;;;;;11.13;9.23;;;15.80;99.90;;;;;;4954603;28;20203;-65
2023/06/24 05:06:38;;;;;;;14.35;9.68;;;15.80;99.90;;;;;;4963937;28;20210;-64
2023/06/24 05:09:05;;;;;;;13.52;9.23;;;16.00;99.90;;;;;;4969530;28;20672;-65
2023/06/24 05:11:32;;;;;;;11.02;9.38;;;16.00;99.90;;;;;;4972409;28;20211;-65
2023/06/24 05:14:00;;;;;;;15.52;9.55;;;16.10;99.90;;;;;;4982007;28;20229;-65
2023/06/24 05:16:27;;;;;;;14.05;9.13;;;16.20;99.90;;;;;;4947110;28;20216;-65
2023/06/24 05:18:53;;;;;;;16.40;9.95;;;16.20;99.90;;;;;;4981142;28;20288;-65
2023/06/24 05:21:20;;;;;;;15.27;9.55;;;16.40;99.90;;;;;;4960087;28;20217;-65
2023/06/24 05:23:47;;;;;;;12.32;9.75;;;16.30;99.90;;;;;;4978217;28;20234;-65
2023/06/24 05:26:14;;;;;;;14.73;10.25;;;17.60;99.90;;;;;;4967043;28;20588;-65
2023/06/24 05:28:41;;;;;;;16.75;9.93;;;;;;;;;;4984737;28;20202;-65
2023/06/24 05:31:09;;;;;;;15.15;9.57;;;16.50;99.90;;;;;;4985242;28;20781;-65
2023/06/24 05:33:36;;;;;;;15.85;9.82;;;16.60;99.90;;;;;;4951826;28;21202;-64
2023/06/24 05:36:03;;;;;;;13.30;10.30;;;16.80;99.90;;;;;;4974305;28;20749;-65
2023/06/24 05:38:30;;;;;;;15.70;9.70;;;16.80;99.90;;;;;;4965467;28;20207;-65
2023/06/24 05:40:56;;;;;;;14.63;9.95;;;16.90;99.90;;;;;;4982659;28;20215;-65
2023/06/24 05:43:23;;;;;;;13.93;10.35;;;16.80;99.90;;;;;;4962885;28;20211;-65
2023/06/24 05:45:50;;;;;;;16.27;10.05;;;16.90;99.90;;;;;;4992398;28;20217;-65
2023/06/24 05:48:18;;;;;;;17.33;11.18;;;16.90;99.90;;;;;;4954729;28;20231;-65
2023/06/24 05:50:45;;;;;;;13.73;10.65;;;17.00;99.90;;;;;;4990198;28;20290;-66
2023/06/24 05:53:12;;;;;;;17.45;11.48;;;17.60;99.90;;;;;;4959279;28;20226;-65
2023/06/24 05:55:38;;;;;;;18.67;10.40;;;17.10;99.90;;;;;;4975192;28;20220;-65
2023/06/24 05:58:05;;;;;;;28.23;18.63;;;17.20;99.90;;;;;;4971989;28;20199;-65
2023/06/24 06:00:32;;;;;;;24.65;18.08;;;17.30;99.90;;;;;;4973018;28;20206;-65
2023/06/24 06:02:59;;;;;;;21.88;14.98;;;17.30;99.90;;;;;;4975452;28;20210;-65
2023/06/24 06:05:27;;;;;;;16.13;10.35;;;17.30;99.90;;;;;;4958166;28;20261;-65
2023/06/24 06:07:54;;;;;;;14.90;9.73;;;17.40;99.90;;;;;;4971083;28;20202;-65
2023/06/24 06:10:21;;;;;;;15.70;9.48;;;17.40;99.90;;;;;;4976225;28;21244;-66
2023/06/24 06:12:48;;;;;;;12.75;9.35;;;17.40;99.90;;;;;;4990061;28;20214;-65
2023/06/24 06:15:14;;;;;;;12.57;9.63;;;17.50;99.90;;;;;;4967156;28;20206;-65
2023/06/24 06:17:41;;;;;;;11.63;8.48;;;17.50;99.90;;;;;;4987446;28;20860;-65
2023/06/24 06:20:09;;;;;;;11.88;9.18;;;17.50;99.90;;;;;;4945069;28;20260;-66
2023/06/24 06:22:38;;;;;;;13.20;8.90;;;17.60;99.90;;;;;;4969998;28;20199;-65
2023/06/24 06:25:06;;;;;;;12.20;9.38;;;17.70;99.90;;;;;;4975627;28;20230;-65
2023/06/24 06:27:33;;;;;;;11.63;9.50;;;17.60;99.90;;;;;;4989608;28;20198;-65
2023/06/24 06:30:00;;;;;;;12.73;9.20;;;17.70;99.90;;;;;;4962292;28;20233;-65
2023/06/24 06:32:27;;;;;;;12.35;9.38;;;17.80;99.90;;;;;;4982837;28;20423;-65
2023/06/24 06:34:54;;;;;;;12.35;9.10;;;17.80;99.90;;;;;;4977858;28;20230;-65
2023/06/24 06:37:20;;;;;;;14.25;10.02;;;17.80;99.90;;;;;;4951753;28;20207;-65
2023/06/24 06:39:48;;;;;;;12.63;9.02;;;18.10;99.90;;;;;;4953974;28;20209;-65
2023/06/24 06:42:17;;;;;;;11.88;8.93;;;17.90;99.90;;;;;;4982505;28;20195;-65
2023/06/24 06:44:43;;;;;;;13.52;9.38;;;18.00;99.90;;;;;;4974297;28;20230;-65
2023/06/24 06:47:11;;;;;;;12.10;9.07;;;18.00;99.90;;;;;;4942002;28;20217;-65
2023/06/24 06:49:38;;;;;;;11.73;9.55;;;18.00;99.90;;;;;;4977516;28;20229;-65
2023/06/24 06:52:06;;;;;;;13.18;8.77;;;18.10;99.90;;;;;;4938115;28;20227;-65
2023/06/24 06:54:33;;;;;;;15.10;10.35;;;18.10;99.90;;;;;;4960163;28;20238;-65
2023/06/24 06:57:03;;;;;;;12.40;9.63;;;18.10;99.90;;;;;;4972064;28;20217;-65
2023/06/24 06:59:30;;;;;;;11.82;8.77;;;18.20;99.90;;;;;;4964538;28;21113;-65
2023/06/24 07:01:57;;;;;;;9.43;7.93;;;18.20;99.90;;;;;;4960786;28;20227;-65
2023/06/24 07:04:24;;;;;;;19.08;9.45;;;18.20;99.90;;;;;;4962408;28;20218;-65
2023/06/24 07:06:50;;;;;;;11.82;8.95;;;17.20;99.90;;;;;;4947134;28;20227;-65
2023/06/24 07:09:17;;;;;;;11.05;7.90;;;18.40;99.90;;;;;;4966618;28;20202;-65
2023/06/24 07:11:44;;;;;;;11.43;8.77;;;18.40;99.90;;;;;;4944580;28;20235;-65
2023/06/24 07:14:12;;;;;;;14.02;8.50;;;18.40;99.90;;;;;;4971866;28;20227;-65
2023/06/24 07:16:39;;;;;;;11.10;8.07;;;18.50;99.90;;;;;;4960963;28;20770;-64
2023/06/24 07:19:06;;;;;;;10.98;7.68;;;18.50;99.90;;;;;;4979560;28;20218;-65
2023/06/24 07:21:33;;;;;;;9.25;8.05;;;18.40;99.90;;;;;;4982315;28;20194;-65
2023/06/24 07:23:59;;;;;;;7.68;6.88;;;18.60;99.90;;;;;;4946819;28;20253;-65
2023/06/24 07:26:27;;;;;;;8.77;6.90;;;18.60;99.90;;;;;;4944351;28;20223;-65
2023/06/24 07:28:55;;;;;;;8.90;6.10;;;;;;;;;;4954662;28;20234;-65
2023/06/24 07:31:23;;;;;;;10.18;6.45;;;18.70;99.90;;;;;;4969138;28;20245;-65
2023/06/24 07:33:49;;;;;;;7.13;5.57;;;19.10;99.90;;;;;;4951638;28;20234;-65
2023/06/24 07:36:16;;;;;;;5.65;4.70;;;19.30;99.90;;;;;;4972923;28;20214;-66
2023/06/24 07:38:43;;;;;;;8.13;5.82;;;19.20;99.90;;;;;;4939310;28;20354;-64
2023/06/24 07:41:10;;;;;;;6.55;5.00;;;19.30;99.90;;;;;;4948416;28;20242;-67
2023/06/24 07:43:37;;;;;;;5.03;4.28;;;19.40;99.90;;;;;;4957432;28;20230;-64
2023/06/24 07:46:03;;;;;;;5.43;3.80;;;19.70;99.90;;;;;;4972518;28;20669;-65
2023/06/24 07:48:32;;;;;;;6.93;5.03;;;20.00;99.90;;;;;;4937839;28;20230;-65
2023/06/24 07:50:59;;;;;;;5.47;4.68;;;19.90;99.90;;;;;;4975708;28;20203;-64
2023/06/24 07:53:26;;;;;;;6.47;4.32;;;19.80;99.90;;;;;;4943055;28;20589;-64
2023/06/24 07:55:53;;;;;;;7.32;5.13;;;19.80;99.90;;;;;;4977117;28;20203;-64
2023/06/24 07:58:20;;;;;;;7.72;4.63;;;19.70;99.90;;;;;;4953405;28;20232;-65
2023/06/24 08:00:46;;;;;;;5.47;4.60;;;19.70;99.90;;;;;;4965014;28;20297;-65
2023/06/24 08:03:14;;;;;;;5.20;4.50;;;19.60;99.90;;;;;;4930514;28;20219;-64
2023/06/24 08:05:42;;;;;;;4.70;4.22;;;19.60;99.90;;;;;;4972884;28;20238;-65
2023/06/24 08:08:09;;;;;;;6.00;4.30;;;19.70;99.90;;;;;;4965263;28;20227;-65
2023/06/24 08:10:36;;;;;;;7.55;4.25;;;19.80;99.90;;;;;;4925954;28;20246;-65
2023/06/24 08:13:03;;;;;;;8.23;4.03;;;;;;;;;;4955583;28;20225;-65
2023/06/24 08:15:30;;;;;;;7.25;3.92;;;19.90;99.90;;;;;;4947688;28;20235;-65
2023/06/24 08:17:57;;;;;;;6.82;4.38;;;20.10;99.90;;;;;;4960649;28;20230;-65
2023/06/24 08:20:24;;;;;;;8.57;4.57;;;20.00;99.90;;;;;;4976422;28;20227;-65
2023/06/24 08:22:53;;;;;;;6.78;4.32;;;20.10;99.90;;;;;;4957294;28;20448;-64
2023/06/24 08:25:19;;;;;;;4.72;4.22;;;20.10;99.90;;;;;;4920332;28;20258;-65
2023/06/24 08:27:47;;;;;;;7.78;4.10;;;20.10;99.90;;;;;;4947656;28;20222;-64
2023/06/24 08:30:15;;;;;;;7.65;4.63;;;20.30;99.90;;;;;;4964884;28;20226;-65
2023/06/24 08:32:42;;;;;;;6.15;4.40;;;20.30;99.90;;;;;;4963137;28;20742;-65
2023/06/24 08:35:09;;;;;;;7.90;4.35;;;20.30;99.90;;;;;;4958700;28;20241;-65
2023/06/24 08:37:37;;;;;;;7.90;4.28;;;20.50;99.90;;;;;;4961580;28;20238;-65
2023/06/24 08:40:07;;;;;;;6.10;4.13;;;20.40;99.90;;;;;;4924486;28;20237;-64
2023/06/24 08:42:34;;;;;;;5.88;3.88;;;20.40;99.90;;;;;;4969767;28;20214;-65
2023/06/24 08:45:01;;;;;;;11.52;4.45;;;20.40;99.90;;;;;;4979506;28;20234;-65
2023/06/24 08:47:29;;;;;;;6.82;5.03;;;20.40;99.90;;;;;;4956774;28;20230;-65
2023/06/24 08:50:03;;;;;;;11.80;4.63;;;20.50;99.90;;;;;;4959241;28;20226;-64
2023/06/24 08:52:32;;;;;;;4.95;4.03;;;20.50;99.90;;;;;;4976288;28;20231;-65
2023/06/24 08:55:01;;;;;;;5.68;4.20;;;20.50;99.90;;;;;;4927965;28;21595;-65
2023/06/24 08:57:30;;;;;;;6.70;4.20;;;20.40;99.90;;;;;;4976710;28;20348;-65
2023/06/24 08:59:57;;;;;;;9.82;4.45;;;20.40;99.90;;;;;;4953134;28;20231;-65
2023/06/24 09:02:24;;;;;;;6.03;4.32;;;20.40;99.90;;;;;;4957001;28;20218;-65
2023/06/24 09:04:52;;;;;;;5.78;4.18;;;20.50;99.90;;;;;;4944352;28;20227;-65
2023/06/24 09:07:27;;;;;;;5.95;5.18;;;20.50;99.90;;;;;;4959019;28;20652;-65
2023/06/24 09:09:54;;;;;;;6.03;4.28;;;20.50;99.90;;;;;;4955109;28;20227;-65
2023/06/24 09:12:21;;;;;;;9.18;4.53;;;20.60;99.90;;;;;;4925575;28;20715;-65
2023/06/24 09:14:51;;;;;;;7.43;3.90;;;20.70;99.90;;;;;;4948148;28;20231;-65
2023/06/24 09:17:18;;;;;;;6.38;4.22;;;20.70;99.90;;;;;;4978287;28;20207;-64
2023/06/24 09:19:45;;;;;;;6.78;4.60;;;20.90;99.90;;;;;;4945638;28;21031;-65
2023/06/24 09:22:17;;;;;;;7.70;4.35;;;20.90;99.90;;;;;;4958680;28;20207;-65
2023/06/24 09:24:46;;;;;;;7.05;5.00;;;20.60;99.90;;;;;;4962205;28;20234;-64
2023/06/24 09:27:14;;;;;;;6.05;4.57;;;21.00;99.90;;;;;;4940986;28;20218;-65
2023/06/24 09:29:42;;;;;;;5.10;4.18;;;21.10;99.90;;;;;;4966987;28;20703;-65
2023/06/24 09:32:11;;;;;;;4.88;4.07;;;21.00;99.90;;;;;;4957382;28;20605;-65
2023/06/24 09:34:38;;;;;;;5.20;4.18;;;21.10;99.90;;;;;;4966682;28;20812;-65
2023/06/24 09:37:05;;;;;;;6.90;4.65;;;21.20;99.90;;;;;;4959224;28;20222;-64
2023/06/24 09:39:38;;;;;;;6.60;4.63;;;21.30;99.90;;;;;;4966173;28;20227;-65
2023/06/24 09:42:06;;;;;;;6.85;4.55;;;21.30;99.90;;;;;;4937411;28;20317;-65
2023/06/24 09:44:33;;;;;;;5.90;4.47;;;21.80;99.90;;;;;;4960204;28;20775;-65
2023/06/24 09:47:00;;;;;;;4.97;4.35;;;21.30;99.90;;;;;;4960755;28;20226;-65
2023/06/24 09:49:28;;;;;;;5.00;3.90;;;21.20;99.90;;;;;;4957346;28;20234;-65
2023/06/24 09:51:57;;;;;;;9.00;5.03;;;21.40;99.90;;;;;;4953205;28;20226;-65
2023/06/24 09:54:26;;;;;;;5.07;4.10;;;21.40;99.90;;;;;;4974593;28;20258;-65
2023/06/24 09:56:55;;;;;;;5.43;4.22;;;21.50;99.90;;;;;;4927017;28;20341;-66
2023/06/24 09:59:24;;;;;;;5.95;4.75;;;21.40;99.90;;;;;;4973971;28;20203;-65
2023/06/24 10:01:53;;;;;;;7.80;4.90;;;21.50;99.90;;;;;;4938146;28;20837;-65
2023/06/24 10:04:21;;;;;;;5.72;4.30;;;21.70;99.90;;;;;;4952452;28;20226;-65
2023/06/24 10:06:50;;;;;;;6.95;4.72;;;21.70;99.90;;;;;;4944989;28;20366;-65
2023/06/24 10:09:19;;;;;;;6.43;4.65;;;22.00;99.90;;;;;;4961793;28;21444;-65
2023/06/24 10:11:47;;;;;;;8.43;4.60;;;22.10;99.90;;;;;;4967816;28;20675;-65
2023/06/24 10:14:14;;;;;;;6.97;5.25;;;22.30;99.90;;;;;;4943695;28;20214;-65
2023/06/24 10:16:42;;;;;;;7.28;4.93;;;21.90;99.90;;;;;;4950659;28;20230;-66
2023/06/24 10:19:08;;;;;;;6.93;4.60;;;22.50;99.90;;;;;;4931274;28;20223;-65
2023/06/24 10:21:51;;;;;;;5.53;4.80;;;22.60;99.90;;;;;;4934626;28;20240;-65
2023/06/24 10:24:31;;;;;;;6.75;5.28;;;22.70;99.90;;;;;;4956383;28;20238;-65
2023/06/24 10:27:03;;;;;;;5.68;4.32;;;22.90;99.90;;;;;;4956556;28;20741;-65
2023/06/24 10:29:34;;;;;;;6.88;4.55;;;22.90;99.90;;;;;;4946468;28;20223;-65
2023/06/24 10:32:05;;;;;;;7.60;4.88;;;22.90;99.90;;;;;;4961984;28;21412;-65
2023/06/24 10:34:35;;;;;;;9.45;4.28;;;23.00;99.90;;;;;;4965569;28;20240;-65
2023/06/24 10:37:05;;;;;;;7.35;4.68;;;22.50;99.90;;;;;;4939326;28;20237;-65
2023/06/24 10:39:46;;;;;;;6.40;4.50;;;23.20;99.90;;;;;;4956109;28;24361;-65
2023/06/24 10:42:41;;;;;;;5.63;4.70;;;23.20;99.90;;;;;;4942083;28;20256;-65
2023/06/24 10:45:16;;;;;;;7.28;5.10;;;23.20;99.90;;;;;;4962142;28;20734;-65
2023/06/24 10:47:44;;;;;;;5.10;4.35;;;22.90;99.90;;;;;;4933983;28;20223;-65
2023/06/24 10:50:13;;;;;;;7.10;5.07;;;23.00;99.90;;;;;;4977861;28;20734;-65
2023/06/24 10:52:42;;;;;;;6.05;4.43;;;22.90;99.90;;;;;;4947023;28;20223;-65
2023/06/24 10:55:10;;;;;;;5.63;4.32;;;23.00;99.90;;;;;;4953590;28;20230;-65
2023/06/24 10:57:38;;;;;;;6.13;5.03;;;23.20;99.90;;;;;;4962858;28;20234;-65
2023/06/24 11:00:05;;;;;;;4.80;4.32;;;23.40;99.90;;;;;;4934074;28;20222;-65
2023/06/24 11:02:32;;;;;;;5.57;5.07;;;23.40;99.90;;;;;;4951072;28;21207;-65
2023/06/24 11:05:02;;;;;;;8.77;4.68;;;23.40;99.90;;;;;;4972176;28;20227;-65
2023/06/24 11:07:34;;;;;;;6.80;4.50;;;23.40;99.90;;;;;;4959335;28;20231;-65
2023/06/24 11:10:04;;;;;;;9.15;4.65;;;23.30;99.90;;;;;;4949976;28;20227;-65
2023/06/24 11:12:32;;;;;;;5.45;4.15;;;23.30;99.90;;;;;;4975101;28;20225;-65
2023/06/24 11:15:00;;;;;;;7.18;5.13;;;23.40;99.90;;;;;;4925093;28;20222;-65
2023/06/24 11:17:27;;;;;;;6.47;4.20;;;23.60;99.90;;;;;;4974611;28;20223;-65
2023/06/24 11:19:56;;;;;;;5.65;4.53;;;23.80;99.90;;;;;;4942970;28;20237;-65
2023/06/24 11:22:23;;;;;;;7.22;4.50;;;23.80;99.90;;;;;;4972899;28;20234;-65
2023/06/24 11:24:50;;;;;;;12.70;4.70;;;23.50;99.90;;;;;;4941959;28;20980;-65
2023/06/24 11:27:25;;;;;;;6.13;4.35;;;23.80;99.90;;;;;;4971629;28;20218;-65
2023/06/24 11:29:53;;;;;;;6.55;4.10;;;23.80;99.90;;;;;;4933576;28;20323;-65
2023/06/24 11:32:20;;;;;;;5.47;4.22;;;23.80;99.90;;;;;;4967200;28;20223;-65
2023/06/24 11:34:48;;;;;;;5.80;4.25;;;23.80;99.90;;;;;;4952159;28;20593;-65
2023/06/24 11:37:15;;;;;;;7.32;4.70;;;23.70;99.90;;;;;;4930914;28;20595;-66
2023/06/24 11:39:42;;;;;;;5.13;4.10;;;23.80;99.90;;;;;;4905181;28;20227;-66
2023/06/24 11:42:11;;;;;;;6.90;4.90;;;23.80;99.90;;;;;;4967323;28;20219;-65
2023/06/24 11:44:43;;;;;;;4.57;3.78;;;24.00;99.90;;;;;;4921923;28;21515;-65
2023/06/24 11:47:11;;;;;;;6.72;4.05;;;23.90;99.90;;;;;;4965006;28;20227;-65
2023/06/24 11:49:51;;;;;;;4.10;3.72;;;23.90;99.90;;;;;;4941376;28;20456;-65
2023/06/24 11:52:18;;;;;;;5.25;4.40;;;24.10;99.90;;;;;;4956497;28;20202;-65
2023/06/24 11:54:45;;;;;;;6.03;4.68;;;24.10;99.90;;;;;;4946302;28;20924;-65
2023/06/24 11:57:12;;;;;;;4.78;4.10;;;24.10;99.90;;;;;;4976917;28;20226;-65
2023/06/24 11:59:40;;;;;;;5.25;4.75;;;24.10;99.90;;;;;;4960901;28;20768;-65
2023/06/24 12:02:07;;;;;;;5.25;4.45;;;24.20;99.90;;;;;;4947548;28;20298;-65
2023/06/24 12:04:34;;;;;;;7.20;4.13;;;24.20;99.90;;;;;;4955509;28;20217;-65
2023/06/24 12:07:01;;;;;;;5.70;4.30;;;24.30;99.90;;;;;;4956530;28;20231;-65
2023/06/24 12:09:29;;;;;;;5.20;4.57;;;24.30;99.90;;;;;;4965302;28;20191;-65
2023/06/24 12:11:56;;;;;;;5.72;4.70;;;24.30;99.90;;;;;;4965266;28;20200;-66
2023/06/24 12:14:25;;;;;;;7.07;4.70;;;24.20;99.90;;;;;;4943313;28;20230;-65
2023/06/24 12:16:53;;;;;;;6.35;4.38;;;24.20;99.90;;;;;;4950670;28;20229;-65
2023/06/24 12:19:21;;;;;;;7.47;4.43;;;24.30;99.90;;;;;;4955723;28;20228;-65
2023/06/24 12:21:48;;;;;;;6.18;4.32;;;24.30;99.90;;;;;;4965507;28;20223;-65
2023/06/24 12:24:15;;;;;;;4.35;3.95;;;24.30;99.90;;;;;;4966533;28;20222;-65
2023/06/24 12:26:42;;;;;;;4.88;4.30;;;24.50;99.90;;;;;;4960589;28;20638;-65
2023/06/24 12:29:08;;;;;;;8.05;4.35;;;24.50;99.90;;;;;;4966028;28;20490;-65
2023/06/24 12:31:35;;;;;;;6.10;4.72;;;24.60;99.90;;;;;;4973383;28;20234;-65
2023/06/24 12:34:05;;;;;;;5.10;4.22;;;24.70;99.90;;;;;;4927249;28;20233;-65
2023/06/24 12:36:32;;;;;;;7.38;5.35;;;24.70;99.90;;;;;;4975435;28;20837;-65
2023/06/24 12:38:58;;;;;;;12.10;5.40;;;24.60;99.90;;;;;;4943850;28;20266;-65
2023/06/24 12:41:26;;;;;;;11.05;5.43;;;24.60;99.90;;;;;;4949556;28;20638;-65
2023/06/24 12:43:53;;;;;;;6.45;4.78;;;24.70;99.90;;;;;;4964503;28;20727;-65
2023/06/24 12:46:20;;;;;;;7.30;5.22;;;24.70;99.90;;;;;;4959019;28;20226;-65
2023/06/24 12:48:47;;;;;;;5.57;4.85;;;24.70;99.90;;;;;;4914737;28;20226;-64